sensor_id;sensor_type;location;lat;lon;timestamp;P1;durP1;ratioP1;P2;durP2;ratioP2
23228;SDS011;11783;50.350;6.576;2023-02-28T00:00:43;4.90;;;1.88;;
23228;SDS011;11783;50.350;6.576;2023-02-28T00:03:09;3.53;;;1.70;;
23228;SDS011;11783;50.350;6.576;2023-02-28T00:05:34;4.32;;;1.88;;
23228;SDS011;11783;50.350;6.576;2023-02-28T00:08:00;4.15;;;2.03;;
23228;SDS011;11783;50.350;6.576;2023-02-28T00:10:26;4.00;;;1.50;;
23228;SDS011;11783;50.350;6.576;2023-02-28T00:12:54;5.03;;;1.70;;
23228;SDS011;11783;50.350;6.576;2023-02-28T00:15:22;6.03;;;1.95;;
23228;SDS011;11783;50.350;6.576;2023-02-28T00:17:48;4.13;;;1.80;;
23228;SDS011;11783;50.350;6.576;2023-02-28T00:20:13;3.97;;;1.63;;
23228;SDS011;11783;50.350;6.576;2023-02-28T00:22:40;3.85;;;1.65;;
23228;SDS011;11783;50.350;6.576;2023-02-28T00:25:11;5.65;;;1.90;;
23228;SDS011;11783;50.350;6.576;2023-02-28T00:27:38;4.10;;;1.85;;
23228;SDS011;11783;50.350;6.576;2023-02-28T00:30:05;4.82;;;2.20;;
23228;SDS011;11783;50.350;6.576;2023-02-28T00:32:34;6.22;;;3.05;;
23228;SDS011;11783;50.350;6.576;2023-02-28T00:35:00;5.53;;;2.92;;
23228;SDS011;11783;50.350;6.576;2023-02-28T00:37:26;6.40;;;2.50;;
23228;SDS011;11783;50.350;6.576;2023-02-28T00:39:51;4.07;;;2.30;;
23228;SDS011;11783;50.350;6.576;2023-02-28T00:42:17;4.05;;;2.08;;
23228;SDS011;11783;50.350;6.576;2023-02-28T00:44:42;4.72;;;1.85;;
23228;SDS011;11783;50.350;6.576;2023-02-28T00:47:07;4.53;;;2.10;;
23228;SDS011;11783;50.350;6.576;2023-02-28T00:49:33;4.50;;;1.80;;
23228;SDS011;11783;50.350;6.576;2023-02-28T00:51:58;4.25;;;1.73;;
23228;SDS011;11783;50.350;6.576;2023-02-28T00:54:24;4.55;;;2.08;;
23228;SDS011;11783;50.350;6.576;2023-02-28T00:56:49;3.35;;;1.90;;
23228;SDS011;11783;50.350;6.576;2023-02-28T00:59:15;4.53;;;2.17;;
23228;SDS011;11783;50.350;6.576;2023-02-28T01:01:42;4.55;;;1.95;;
23228;SDS011;11783;50.350;6.576;2023-02-28T01:04:08;5.53;;;1.95;;
23228;SDS011;11783;50.350;6.576;2023-02-28T01:06:34;4.38;;;2.20;;
23228;SDS011;11783;50.350;6.576;2023-02-28T01:08:59;5.85;;;2.10;;
23228;SDS011;11783;50.350;6.576;2023-02-28T01:11:25;3.53;;;1.90;;
23228;SDS011;11783;50.350;6.576;2023-02-28T01:13:50;3.63;;;2.00;;
23228;SDS011;11783;50.350;6.576;2023-02-28T01:16:16;5.28;;;1.98;;
23228;SDS011;11783;50.350;6.576;2023-02-28T01:18:42;6.43;;;2.33;;
23228;SDS011;11783;50.350;6.576;2023-02-28T01:21:08;5.85;;;2.88;;
23228;SDS011;11783;50.350;6.576;2023-02-28T01:23:36;5.55;;;2.25;;
23228;SDS011;11783;50.350;6.576;2023-02-28T01:26:08;5.25;;;2.63;;
23228;SDS011;11783;50.350;6.576;2023-02-28T01:28:39;5.95;;;2.33;;
23228;SDS011;11783;50.350;6.576;2023-02-28T01:31:05;6.65;;;2.47;;
23228;SDS011;11783;50.350;6.576;2023-02-28T01:33:31;5.47;;;2.75;;
23228;SDS011;11783;50.350;6.576;2023-02-28T01:36:05;5.88;;;2.50;;
23228;SDS011;11783;50.350;6.576;2023-02-28T01:38:33;4.22;;;2.40;;
23228;SDS011;11783;50.350;6.576;2023-02-28T01:40:59;6.28;;;2.20;;
23228;SDS011;11783;50.350;6.576;2023-02-28T01:43:30;3.90;;;2.03;;
23228;SDS011;11783;50.350;6.576;2023-02-28T01:45:58;4.60;;;2.28;;
23228;SDS011;11783;50.350;6.576;2023-02-28T01:48:25;5.07;;;2.38;;
23228;SDS011;11783;50.350;6.576;2023-02-28T01:50:52;3.40;;;2.10;;
23228;SDS011;11783;50.350;6.576;2023-02-28T01:53:24;5.22;;;2.30;;
23228;SDS011;11783;50.350;6.576;2023-02-28T01:55:55;5.88;;;2.45;;
23228;SDS011;11783;50.350;6.576;2023-02-28T01:58:21;4.43;;;2.40;;
23228;SDS011;11783;50.350;6.576;2023-02-28T02:00:48;4.20;;;2.00;;
23228;SDS011;11783;50.350;6.576;2023-02-28T02:03:15;6.50;;;2.70;;
23228;SDS011;11783;50.350;6.576;2023-02-28T02:05:46;4.75;;;2.30;;
23228;SDS011;11783;50.350;6.576;2023-02-28T02:08:22;4.00;;;2.13;;
23228;SDS011;11783;50.350;6.576;2023-02-28T02:10:51;4.03;;;2.28;;
23228;SDS011;11783;50.350;6.576;2023-02-28T02:26:51;5.57;;;2.63;;
23228;SDS011;11783;50.350;6.576;2023-02-28T02:40:30;5.43;;;2.30;;
23228;SDS011;11783;50.350;6.576;2023-02-28T02:43:06;3.90;;;2.35;;
23228;SDS011;11783;50.350;6.576;2023-02-28T02:48:13;4.88;;;2.30;;
23228;SDS011;11783;50.350;6.576;2023-02-28T02:50:43;5.43;;;2.60;;
23228;SDS011;11783;50.350;6.576;2023-02-28T02:53:12;5.47;;;2.53;;
23228;SDS011;11783;50.350;6.576;2023-02-28T02:55:43;5.28;;;2.45;;
23228;SDS011;11783;50.350;6.576;2023-02-28T02:58:13;4.93;;;2.47;;
23228;SDS011;11783;50.350;6.576;2023-02-28T03:00:42;5.32;;;2.70;;
23228;SDS011;11783;50.350;6.576;2023-02-28T03:03:13;5.53;;;2.50;;
23228;SDS011;11783;50.350;6.576;2023-02-28T03:05:44;6.55;;;2.40;;
23228;SDS011;11783;50.350;6.576;2023-02-28T03:08:12;5.97;;;2.58;;
23228;SDS011;11783;50.350;6.576;2023-02-28T03:10:39;5.63;;;2.67;;
23228;SDS011;11783;50.350;6.576;2023-02-28T03:18:37;4.05;;;2.25;;
23228;SDS011;11783;50.350;6.576;2023-02-28T03:21:14;4.53;;;2.67;;
23228;SDS011;11783;50.350;6.576;2023-02-28T03:23:57;6.05;;;2.90;;
23228;SDS011;11783;50.350;6.576;2023-02-28T03:26:31;4.93;;;2.60;;
23228;SDS011;11783;50.350;6.576;2023-02-28T03:29:03;5.55;;;2.60;;
23228;SDS011;11783;50.350;6.576;2023-02-28T03:31:41;5.22;;;2.75;;
23228;SDS011;11783;50.350;6.576;2023-02-28T03:36:45;9.18;;;2.78;;
23228;SDS011;11783;50.350;6.576;2023-02-28T03:44:32;5.28;;;3.25;;
23228;SDS011;11783;50.350;6.576;2023-02-28T03:47:07;5.38;;;2.97;;
23228;SDS011;11783;50.350;6.576;2023-02-28T03:49:44;6.03;;;2.70;;
23228;SDS011;11783;50.350;6.576;2023-02-28T03:52:14;5.07;;;2.90;;
23228;SDS011;11783;50.350;6.576;2023-02-28T03:54:53;5.10;;;2.83;;
23228;SDS011;11783;50.350;6.576;2023-02-28T03:57:27;5.57;;;2.85;;
23228;SDS011;11783;50.350;6.576;2023-02-28T04:00:14;6.10;;;3.00;;
23228;SDS011;11783;50.350;6.576;2023-02-28T04:03:03;5.57;;;2.80;;
23228;SDS011;11783;50.350;6.576;2023-02-28T04:05:28;4.15;;;2.63;;
23228;SDS011;11783;50.350;6.576;2023-02-28T04:07:54;6.25;;;3.10;;
23228;SDS011;11783;50.350;6.576;2023-02-28T04:10:29;5.75;;;2.92;;
23228;SDS011;11783;50.350;6.576;2023-02-28T04:12:54;4.28;;;2.92;;
23228;SDS011;11783;50.350;6.576;2023-02-28T04:15:19;3.80;;;2.55;;
23228;SDS011;11783;50.350;6.576;2023-02-28T04:17:47;6.38;;;2.85;;
23228;SDS011;11783;50.350;6.576;2023-02-28T04:20:13;4.57;;;2.90;;
23228;SDS011;11783;50.350;6.576;2023-02-28T04:22:38;5.57;;;3.00;;
23228;SDS011;11783;50.350;6.576;2023-02-28T04:25:04;5.88;;;2.78;;
23228;SDS011;11783;50.350;6.576;2023-02-28T04:27:30;5.68;;;2.90;;
23228;SDS011;11783;50.350;6.576;2023-02-28T04:29:56;6.50;;;2.72;;
23228;SDS011;11783;50.350;6.576;2023-02-28T04:32:21;4.95;;;2.80;;
23228;SDS011;11783;50.350;6.576;2023-02-28T04:34:46;5.38;;;2.88;;
23228;SDS011;11783;50.350;6.576;2023-02-28T04:37:12;6.57;;;3.20;;
23228;SDS011;11783;50.350;6.576;2023-02-28T04:39:37;4.53;;;2.83;;
23228;SDS011;11783;50.350;6.576;2023-02-28T04:42:03;5.53;;;2.90;;
23228;SDS011;11783;50.350;6.576;2023-02-28T04:44:28;5.38;;;2.92;;
23228;SDS011;11783;50.350;6.576;2023-02-28T04:46:54;5.00;;;3.08;;
23228;SDS011;11783;50.350;6.576;2023-02-28T04:49:19;6.88;;;3.55;;
23228;SDS011;11783;50.350;6.576;2023-02-28T04:51:44;5.30;;;3.10;;
23228;SDS011;11783;50.350;6.576;2023-02-28T04:54:10;6.32;;;3.22;;
23228;SDS011;11783;50.350;6.576;2023-02-28T04:56:35;6.55;;;3.08;;
23228;SDS011;11783;50.350;6.576;2023-02-28T04:59:00;7.50;;;3.25;;
23228;SDS011;11783;50.350;6.576;2023-02-28T05:01:27;9.05;;;3.15;;
23228;SDS011;11783;50.350;6.576;2023-02-28T05:03:55;5.22;;;2.88;;
23228;SDS011;11783;50.350;6.576;2023-02-28T05:06:22;5.85;;;2.95;;
23228;SDS011;11783;50.350;6.576;2023-02-28T05:08:49;6.28;;;3.10;;
23228;SDS011;11783;50.350;6.576;2023-02-28T05:13:42;7.35;;;3.20;;
23228;SDS011;11783;50.350;6.576;2023-02-28T05:16:08;4.68;;;2.97;;
23228;SDS011;11783;50.350;6.576;2023-02-28T05:18:33;4.38;;;2.78;;
23228;SDS011;11783;50.350;6.576;2023-02-28T05:20:59;5.32;;;3.08;;
23228;SDS011;11783;50.350;6.576;2023-02-28T05:23:27;8.80;;;3.10;;
23228;SDS011;11783;50.350;6.576;2023-02-28T05:25:52;6.50;;;3.10;;
23228;SDS011;11783;50.350;6.576;2023-02-28T05:28:19;5.93;;;3.03;;
23228;SDS011;11783;50.350;6.576;2023-02-28T05:30:44;5.10;;;3.13;;
23228;SDS011;11783;50.350;6.576;2023-02-28T05:33:10;5.35;;;2.97;;
23228;SDS011;11783;50.350;6.576;2023-02-28T05:35:38;5.53;;;3.03;;
23228;SDS011;11783;50.350;6.576;2023-02-28T05:38:04;5.85;;;3.35;;
23228;SDS011;11783;50.350;6.576;2023-02-28T05:40:29;6.30;;;3.28;;
23228;SDS011;11783;50.350;6.576;2023-02-28T05:42:54;5.88;;;3.47;;
23228;SDS011;11783;50.350;6.576;2023-02-28T05:45:20;6.82;;;3.20;;
23228;SDS011;11783;50.350;6.576;2023-02-28T05:47:45;6.25;;;2.97;;
23228;SDS011;11783;50.350;6.576;2023-02-28T05:50:10;5.47;;;2.97;;
23228;SDS011;11783;50.350;6.576;2023-02-28T05:52:36;5.90;;;3.03;;
23228;SDS011;11783;50.350;6.576;2023-02-28T05:55:02;5.82;;;3.42;;
23228;SDS011;11783;50.350;6.576;2023-02-28T05:57:28;5.30;;;3.38;;
23228;SDS011;11783;50.350;6.576;2023-02-28T05:59:53;5.25;;;3.00;;
23228;SDS011;11783;50.350;6.576;2023-02-28T06:02:18;7.57;;;3.17;;
23228;SDS011;11783;50.350;6.576;2023-02-28T06:04:44;5.57;;;3.15;;
23228;SDS011;11783;50.350;6.576;2023-02-28T06:07:10;5.53;;;3.67;;
23228;SDS011;11783;50.350;6.576;2023-02-28T06:09:36;5.55;;;3.40;;
23228;SDS011;11783;50.350;6.576;2023-02-28T06:12:02;8.05;;;3.90;;
23228;SDS011;11783;50.350;6.576;2023-02-28T06:14:30;6.25;;;3.30;;
23228;SDS011;11783;50.350;6.576;2023-02-28T06:16:57;5.25;;;3.50;;
23228;SDS011;11783;50.350;6.576;2023-02-28T06:19:23;6.43;;;3.42;;
23228;SDS011;11783;50.350;6.576;2023-02-28T06:21:50;6.53;;;3.53;;
23228;SDS011;11783;50.350;6.576;2023-02-28T06:24:17;5.07;;;3.28;;
23228;SDS011;11783;50.350;6.576;2023-02-28T06:26:43;7.10;;;3.53;;
23228;SDS011;11783;50.350;6.576;2023-02-28T06:29:09;7.93;;;3.80;;
23228;SDS011;11783;50.350;6.576;2023-02-28T06:31:34;6.63;;;3.67;;
23228;SDS011;11783;50.350;6.576;2023-02-28T06:33:59;6.35;;;3.88;;
23228;SDS011;11783;50.350;6.576;2023-02-28T06:36:25;6.13;;;3.45;;
23228;SDS011;11783;50.350;6.576;2023-02-28T06:38:51;7.82;;;3.90;;
23228;SDS011;11783;50.350;6.576;2023-02-28T06:41:21;6.88;;;3.55;;
23228;SDS011;11783;50.350;6.576;2023-02-28T06:43:48;6.90;;;3.60;;
23228;SDS011;11783;50.350;6.576;2023-02-28T06:46:13;6.47;;;3.85;;
23228;SDS011;11783;50.350;6.576;2023-02-28T06:48:39;6.07;;;3.55;;
23228;SDS011;11783;50.350;6.576;2023-02-28T06:51:07;6.10;;;3.97;;
23228;SDS011;11783;50.350;6.576;2023-02-28T06:53:35;6.55;;;3.70;;
23228;SDS011;11783;50.350;6.576;2023-02-28T06:56:05;6.63;;;3.83;;
23228;SDS011;11783;50.350;6.576;2023-02-28T06:58:33;7.97;;;3.67;;
23228;SDS011;11783;50.350;6.576;2023-02-28T07:01:04;6.05;;;3.47;;
23228;SDS011;11783;50.350;6.576;2023-02-28T07:03:39;6.82;;;3.70;;
23228;SDS011;11783;50.350;6.576;2023-02-28T07:06:08;7.55;;;3.85;;
23228;SDS011;11783;50.350;6.576;2023-02-28T07:08:34;6.03;;;3.55;;
23228;SDS011;11783;50.350;6.576;2023-02-28T07:11:01;6.47;;;3.50;;
23228;SDS011;11783;50.350;6.576;2023-02-28T07:13:26;7.68;;;3.60;;
23228;SDS011;11783;50.350;6.576;2023-02-28T07:15:53;5.10;;;3.25;;
23228;SDS011;11783;50.350;6.576;2023-02-28T07:18:24;5.70;;;3.63;;
23228;SDS011;11783;50.350;6.576;2023-02-28T07:20:51;5.68;;;3.53;;
23228;SDS011;11783;50.350;6.576;2023-02-28T07:23:16;6.10;;;3.47;;
23228;SDS011;11783;50.350;6.576;2023-02-28T07:25:42;5.10;;;3.25;;
23228;SDS011;11783;50.350;6.576;2023-02-28T07:28:08;8.52;;;3.90;;
23228;SDS011;11783;50.350;6.576;2023-02-28T07:30:34;5.90;;;3.70;;
23228;SDS011;11783;50.350;6.576;2023-02-28T07:32:59;5.63;;;3.53;;
23228;SDS011;11783;50.350;6.576;2023-02-28T07:35:25;5.65;;;3.58;;
23228;SDS011;11783;50.350;6.576;2023-02-28T07:37:50;5.90;;;3.25;;
23228;SDS011;11783;50.350;6.576;2023-02-28T07:40:16;4.72;;;3.28;;
23228;SDS011;11783;50.350;6.576;2023-02-28T07:42:43;8.23;;;4.38;;
23228;SDS011;11783;50.350;6.576;2023-02-28T07:45:09;6.97;;;4.20;;
23228;SDS011;11783;50.350;6.576;2023-02-28T07:47:37;7.00;;;4.18;;
23228;SDS011;11783;50.350;6.576;2023-02-28T07:50:04;8.15;;;4.50;;
23228;SDS011;11783;50.350;6.576;2023-02-28T07:52:30;6.60;;;4.00;;
23228;SDS011;11783;50.350;6.576;2023-02-28T07:54:55;8.38;;;4.20;;
23228;SDS011;11783;50.350;6.576;2023-02-28T07:57:21;7.70;;;4.53;;
23228;SDS011;11783;50.350;6.576;2023-02-28T07:59:47;10.75;;;5.05;;
23228;SDS011;11783;50.350;6.576;2023-02-28T08:02:13;6.95;;;4.13;;
23228;SDS011;11783;50.350;6.576;2023-02-28T08:04:40;9.38;;;4.57;;
23228;SDS011;11783;50.350;6.576;2023-02-28T08:07:06;8.68;;;4.82;;
23228;SDS011;11783;50.350;6.576;2023-02-28T08:09:31;7.97;;;4.53;;
23228;SDS011;11783;50.350;6.576;2023-02-28T08:11:57;6.10;;;3.92;;
23228;SDS011;11783;50.350;6.576;2023-02-28T08:14:22;6.55;;;4.20;;
23228;SDS011;11783;50.350;6.576;2023-02-28T08:16:48;6.32;;;4.05;;
23228;SDS011;11783;50.350;6.576;2023-02-28T08:19:13;7.85;;;3.55;;
23228;SDS011;11783;50.350;6.576;2023-02-28T08:21:38;8.55;;;4.07;;
23228;SDS011;11783;50.350;6.576;2023-02-28T08:24:05;5.65;;;3.70;;
23228;SDS011;11783;50.350;6.576;2023-02-28T08:26:30;6.72;;;3.90;;
23228;SDS011;11783;50.350;6.576;2023-02-28T08:28:56;7.00;;;3.95;;
23228;SDS011;11783;50.350;6.576;2023-02-28T08:31:21;5.32;;;3.20;;
23228;SDS011;11783;50.350;6.576;2023-02-28T08:33:48;5.90;;;3.58;;
23228;SDS011;11783;50.350;6.576;2023-02-28T08:36:16;7.22;;;3.85;;
23228;SDS011;11783;50.350;6.576;2023-02-28T08:38:41;5.43;;;3.38;;
23228;SDS011;11783;50.350;6.576;2023-02-28T08:41:07;6.35;;;3.50;;
23228;SDS011;11783;50.350;6.576;2023-02-28T08:43:35;7.65;;;3.42;;
23228;SDS011;11783;50.350;6.576;2023-02-28T08:46:01;4.95;;;3.30;;
23228;SDS011;11783;50.350;6.576;2023-02-28T08:48:27;7.03;;;3.40;;
23228;SDS011;11783;50.350;6.576;2023-02-28T08:51:05;5.50;;;3.00;;
23228;SDS011;11783;50.350;6.576;2023-02-28T08:53:36;7.10;;;3.53;;
23228;SDS011;11783;50.350;6.576;2023-02-28T08:56:06;5.80;;;3.00;;
23228;SDS011;11783;50.350;6.576;2023-02-28T08:58:33;5.70;;;2.63;;
23228;SDS011;11783;50.350;6.576;2023-02-28T09:01:00;5.10;;;3.00;;
23228;SDS011;11783;50.350;6.576;2023-02-28T09:03:31;5.30;;;2.47;;
23228;SDS011;11783;50.350;6.576;2023-02-28T09:05:58;5.93;;;2.90;;
23228;SDS011;11783;50.350;6.576;2023-02-28T09:08:25;4.60;;;2.90;;
23228;SDS011;11783;50.350;6.576;2023-02-28T09:10:52;5.85;;;2.83;;
23228;SDS011;11783;50.350;6.576;2023-02-28T09:13:19;4.43;;;2.63;;
23228;SDS011;11783;50.350;6.576;2023-02-28T09:15:45;5.13;;;2.90;;
23228;SDS011;11783;50.350;6.576;2023-02-28T09:18:10;4.80;;;2.70;;
23228;SDS011;11783;50.350;6.576;2023-02-28T09:20:39;6.32;;;3.00;;
23228;SDS011;11783;50.350;6.576;2023-02-28T09:23:06;4.70;;;2.70;;
23228;SDS011;11783;50.350;6.576;2023-02-28T09:25:32;4.68;;;2.83;;
23228;SDS011;11783;50.350;6.576;2023-02-28T09:27:57;5.50;;;2.70;;
23228;SDS011;11783;50.350;6.576;2023-02-28T09:30:23;4.30;;;2.70;;
23228;SDS011;11783;50.350;6.576;2023-02-28T09:32:48;4.05;;;2.55;;
23228;SDS011;11783;50.350;6.576;2023-02-28T09:35:23;4.63;;;2.50;;
23228;SDS011;11783;50.350;6.576;2023-02-28T09:37:51;4.70;;;2.67;;
23228;SDS011;11783;50.350;6.576;2023-02-28T09:40:18;4.75;;;2.55;;
23228;SDS011;11783;50.350;6.576;2023-02-28T09:42:46;4.38;;;2.70;;
23228;SDS011;11783;50.350;6.576;2023-02-28T09:48:16;4.43;;;2.33;;
23228;SDS011;11783;50.350;6.576;2023-02-28T09:50:46;4.13;;;2.35;;
23228;SDS011;11783;50.350;6.576;2023-02-28T09:53:29;3.83;;;2.15;;
23228;SDS011;11783;50.350;6.576;2023-02-28T09:55:59;5.80;;;2.70;;
23228;SDS011;11783;50.350;6.576;2023-02-28T09:58:45;4.28;;;2.55;;
23228;SDS011;11783;50.350;6.576;2023-02-28T10:01:19;5.07;;;2.38;;
23228;SDS011;11783;50.350;6.576;2023-02-28T10:06:29;4.60;;;2.40;;
23228;SDS011;11783;50.350;6.576;2023-02-28T10:11:38;5.07;;;2.70;;
23228;SDS011;11783;50.350;6.576;2023-02-28T10:14:16;4.65;;;2.83;;
23228;SDS011;11783;50.350;6.576;2023-02-28T10:19:33;4.50;;;2.58;;
23228;SDS011;11783;50.350;6.576;2023-02-28T10:22:09;4.10;;;2.25;;
23228;SDS011;11783;50.350;6.576;2023-02-28T10:24:43;4.22;;;2.40;;
23228;SDS011;11783;50.350;6.576;2023-02-28T10:27:15;4.63;;;2.08;;
23228;SDS011;11783;50.350;6.576;2023-02-28T10:29:52;6.13;;;3.00;;
23228;SDS011;11783;50.350;6.576;2023-02-28T10:37:39;4.07;;;2.55;;
23228;SDS011;11783;50.350;6.576;2023-02-28T10:40:06;4.20;;;2.60;;
23228;SDS011;11783;50.350;6.576;2023-02-28T10:45:31;4.93;;;2.70;;
23228;SDS011;11783;50.350;6.576;2023-02-28T10:53:27;5.85;;;2.90;;
23228;SDS011;11783;50.350;6.576;2023-02-28T11:01:46;5.13;;;2.67;;
23228;SDS011;11783;50.350;6.576;2023-02-28T11:04:17;3.97;;;2.53;;
23228;SDS011;11783;50.350;6.576;2023-02-28T11:07:01;5.82;;;2.95;;
23228;SDS011;11783;50.350;6.576;2023-02-28T11:09:33;5.65;;;2.95;;
23228;SDS011;11783;50.350;6.576;2023-02-28T11:14:30;5.82;;;3.10;;
23228;SDS011;11783;50.350;6.576;2023-02-28T11:17:22;5.20;;;3.00;;
23228;SDS011;11783;50.350;6.576;2023-02-28T11:19:52;4.60;;;2.03;;
23228;SDS011;11783;50.350;6.576;2023-02-28T11:22:27;6.72;;;3.13;;
23228;SDS011;11783;50.350;6.576;2023-02-28T11:24:55;6.88;;;3.22;;
23228;SDS011;11783;50.350;6.576;2023-02-28T11:32:21;4.70;;;2.55;;
23228;SDS011;11783;50.350;6.576;2023-02-28T11:35:02;5.90;;;2.88;;
23228;SDS011;11783;50.350;6.576;2023-02-28T11:37:28;4.90;;;2.90;;
23228;SDS011;11783;50.350;6.576;2023-02-28T11:39:56;6.32;;;3.22;;
23228;SDS011;11783;50.350;6.576;2023-02-28T11:52:42;5.28;;;3.22;;
23228;SDS011;11783;50.350;6.576;2023-02-28T11:55:18;6.97;;;2.90;;
23228;SDS011;11783;50.350;6.576;2023-02-28T12:00:39;5.75;;;3.35;;
23228;SDS011;11783;50.350;6.576;2023-02-28T12:05:56;4.68;;;2.88;;
23228;SDS011;11783;50.350;6.576;2023-02-28T12:08:42;6.15;;;3.30;;
23228;SDS011;11783;50.350;6.576;2023-02-28T12:11:27;5.80;;;3.03;;
23228;SDS011;11783;50.350;6.576;2023-02-28T12:16:31;7.60;;;3.25;;
23228;SDS011;11783;50.350;6.576;2023-02-28T12:27:44;7.20;;;3.28;;
23228;SDS011;11783;50.350;6.576;2023-02-28T12:30:56;4.35;;;2.65;;
23228;SDS011;11783;50.350;6.576;2023-02-28T12:33:33;4.35;;;2.97;;
23228;SDS011;11783;50.350;6.576;2023-02-28T12:36:05;5.28;;;3.00;;
23228;SDS011;11783;50.350;6.576;2023-02-28T12:38:44;5.15;;;2.95;;
23228;SDS011;11783;50.350;6.576;2023-02-28T12:41:15;4.70;;;2.88;;
23228;SDS011;11783;50.350;6.576;2023-02-28T12:43:48;6.10;;;3.28;;
23228;SDS011;11783;50.350;6.576;2023-02-28T12:46:30;5.18;;;2.95;;
23228;SDS011;11783;50.350;6.576;2023-02-28T12:49:10;7.13;;;3.25;;
23228;SDS011;11783;50.350;6.576;2023-02-28T12:51:40;6.80;;;3.00;;
23228;SDS011;11783;50.350;6.576;2023-02-28T12:54:15;5.03;;;2.80;;
23228;SDS011;11783;50.350;6.576;2023-02-28T13:01:59;4.97;;;3.17;;
23228;SDS011;11783;50.350;6.576;2023-02-28T13:07:30;4.72;;;2.78;;
23228;SDS011;11783;50.350;6.576;2023-02-28T13:10:15;5.97;;;3.33;;
23228;SDS011;11783;50.350;6.576;2023-02-28T13:12:50;6.25;;;3.03;;
23228;SDS011;11783;50.350;6.576;2023-02-28T13:17:53;6.13;;;3.25;;
23228;SDS011;11783;50.350;6.576;2023-02-28T13:20:23;5.95;;;2.80;;
23228;SDS011;11783;50.350;6.576;2023-02-28T13:22:51;6.00;;;3.17;;
23228;SDS011;11783;50.350;6.576;2023-02-28T13:27:46;4.25;;;2.67;;
23228;SDS011;11783;50.350;6.576;2023-02-28T13:35:50;5.75;;;2.70;;
23228;SDS011;11783;50.350;6.576;2023-02-28T13:38:34;5.20;;;2.50;;
23228;SDS011;11783;50.350;6.576;2023-02-28T13:46:27;4.13;;;2.90;;
23228;SDS011;11783;50.350;6.576;2023-02-28T13:48:53;5.07;;;2.83;;
23228;SDS011;11783;50.350;6.576;2023-02-28T13:51:33;6.15;;;2.97;;
23228;SDS011;11783;50.350;6.576;2023-02-28T13:54:06;5.57;;;2.90;;
23228;SDS011;11783;50.350;6.576;2023-02-28T13:56:43;7.70;;;2.80;;
23228;SDS011;11783;50.350;6.576;2023-02-28T14:02:26;4.82;;;3.00;;
23228;SDS011;11783;50.350;6.576;2023-02-28T14:05:19;4.50;;;2.78;;
23228;SDS011;11783;50.350;6.576;2023-02-28T14:07:54;4.90;;;2.85;;
23228;SDS011;11783;50.350;6.576;2023-02-28T14:10:33;5.13;;;3.28;;
23228;SDS011;11783;50.350;6.576;2023-02-28T14:15:59;5.90;;;3.25;;
23228;SDS011;11783;50.350;6.576;2023-02-28T14:18:26;5.15;;;2.97;;
23228;SDS011;11783;50.350;6.576;2023-02-28T14:31:41;4.85;;;2.80;;
23228;SDS011;11783;50.350;6.576;2023-02-28T14:37:02;5.35;;;2.83;;
23228;SDS011;11783;50.350;6.576;2023-02-28T14:39:29;5.00;;;2.90;;
23228;SDS011;11783;50.350;6.576;2023-02-28T14:41:56;4.97;;;2.70;;
23228;SDS011;11783;50.350;6.576;2023-02-28T14:44:27;4.53;;;2.90;;
23228;SDS011;11783;50.350;6.576;2023-02-28T14:46:53;6.03;;;3.15;;
23228;SDS011;11783;50.350;6.576;2023-02-28T14:49:31;4.85;;;2.75;;
23228;SDS011;11783;50.350;6.576;2023-02-28T14:52:05;5.47;;;2.90;;
23228;SDS011;11783;50.350;6.576;2023-02-28T14:54:37;8.02;;;4.10;;
23228;SDS011;11783;50.350;6.576;2023-02-28T14:57:04;8.48;;;4.35;;
23228;SDS011;11783;50.350;6.576;2023-02-28T14:59:31;7.75;;;3.95;;
23228;SDS011;11783;50.350;6.576;2023-02-28T15:04:51;5.32;;;3.20;;
23228;SDS011;11783;50.350;6.576;2023-02-28T15:07:19;5.97;;;3.38;;
23228;SDS011;11783;50.350;6.576;2023-02-28T15:09:44;5.72;;;3.30;;
23228;SDS011;11783;50.350;6.576;2023-02-28T15:12:13;6.68;;;3.63;;
23228;SDS011;11783;50.350;6.576;2023-02-28T15:14:41;5.88;;;2.95;;
23228;SDS011;11783;50.350;6.576;2023-02-28T15:17:11;9.98;;;4.10;;
23228;SDS011;11783;50.350;6.576;2023-02-28T15:19:46;8.00;;;4.57;;
23228;SDS011;11783;50.350;6.576;2023-02-28T15:22:19;6.95;;;3.92;;
23228;SDS011;11783;50.350;6.576;2023-02-28T15:24:55;6.45;;;3.50;;
23228;SDS011;11783;50.350;6.576;2023-02-28T15:27:21;7.63;;;4.28;;
23228;SDS011;11783;50.350;6.576;2023-02-28T15:29:59;7.32;;;3.58;;
23228;SDS011;11783;50.350;6.576;2023-02-28T15:32:31;7.07;;;3.58;;
23228;SDS011;11783;50.350;6.576;2023-02-28T15:34:58;6.28;;;3.45;;
23228;SDS011;11783;50.350;6.576;2023-02-28T15:37:55;6.53;;;3.22;;
23228;SDS011;11783;50.350;6.576;2023-02-28T15:40:23;6.50;;;3.50;;
23228;SDS011;11783;50.350;6.576;2023-02-28T15:42:57;5.28;;;3.42;;
23228;SDS011;11783;50.350;6.576;2023-02-28T15:45:46;4.47;;;2.90;;
23228;SDS011;11783;50.350;6.576;2023-02-28T15:48:17;5.00;;;3.05;;
23228;SDS011;11783;50.350;6.576;2023-02-28T15:50:47;4.22;;;2.83;;
23228;SDS011;11783;50.350;6.576;2023-02-28T15:53:17;4.63;;;3.00;;
23228;SDS011;11783;50.350;6.576;2023-02-28T15:55:51;4.28;;;2.50;;
23228;SDS011;11783;50.350;6.576;2023-02-28T15:58:20;4.65;;;2.90;;
23228;SDS011;11783;50.350;6.576;2023-02-28T16:00:59;6.45;;;3.42;;
23228;SDS011;11783;50.350;6.576;2023-02-28T16:03:26;5.68;;;3.30;;
23228;SDS011;11783;50.350;6.576;2023-02-28T16:07:01;7.60;;;3.72;;
23228;SDS011;11783;50.350;6.576;2023-02-28T16:09:05;5.00;;;2.90;;
23228;SDS011;11783;50.350;6.576;2023-02-28T16:11:34;7.35;;;4.10;;
23228;SDS011;11783;50.350;6.576;2023-02-28T16:14:03;5.43;;;3.20;;
23228;SDS011;11783;50.350;6.576;2023-02-28T16:16:29;5.68;;;3.30;;
23228;SDS011;11783;50.350;6.576;2023-02-28T16:18:57;6.03;;;2.97;;
23228;SDS011;11783;50.350;6.576;2023-02-28T16:21:23;4.97;;;2.90;;
23228;SDS011;11783;50.350;6.576;2023-02-28T16:23:50;4.25;;;3.08;;
23228;SDS011;11783;50.350;6.576;2023-02-28T16:26:20;6.28;;;3.58;;
23228;SDS011;11783;50.350;6.576;2023-02-28T16:28:47;5.28;;;3.13;;
23228;SDS011;11783;50.350;6.576;2023-02-28T16:31:13;5.38;;;3.15;;
23228;SDS011;11783;50.350;6.576;2023-02-28T16:33:41;4.97;;;2.85;;
23228;SDS011;11783;50.350;6.576;2023-02-28T16:36:15;6.18;;;3.10;;
23228;SDS011;11783;50.350;6.576;2023-02-28T16:38:42;5.22;;;3.05;;
23228;SDS011;11783;50.350;6.576;2023-02-28T16:41:07;6.28;;;3.47;;
23228;SDS011;11783;50.350;6.576;2023-02-28T16:43:47;7.53;;;3.67;;
23228;SDS011;11783;50.350;6.576;2023-02-28T16:46:16;6.35;;;3.95;;
23228;SDS011;11783;50.350;6.576;2023-02-28T16:48:42;7.20;;;3.92;;
23228;SDS011;11783;50.350;6.576;2023-02-28T16:51:12;6.22;;;3.55;;
23228;SDS011;11783;50.350;6.576;2023-02-28T16:53:42;8.35;;;3.55;;
23228;SDS011;11783;50.350;6.576;2023-02-28T16:56:14;6.35;;;4.00;;
23228;SDS011;11783;50.350;6.576;2023-02-28T16:58:42;6.35;;;3.42;;
23228;SDS011;11783;50.350;6.576;2023-02-28T17:01:08;6.63;;;3.72;;
23228;SDS011;11783;50.350;6.576;2023-02-28T17:03:33;6.70;;;3.60;;
23228;SDS011;11783;50.350;6.576;2023-02-28T17:05:59;6.07;;;3.45;;
23228;SDS011;11783;50.350;6.576;2023-02-28T17:08:25;6.25;;;3.67;;
23228;SDS011;11783;50.350;6.576;2023-02-28T17:10:50;5.78;;;3.53;;
23228;SDS011;11783;50.350;6.576;2023-02-28T17:13:16;6.55;;;3.60;;
23228;SDS011;11783;50.350;6.576;2023-02-28T17:15:41;7.97;;;3.67;;
23228;SDS011;11783;50.350;6.576;2023-02-28T17:18:10;5.40;;;3.17;;
23228;SDS011;11783;50.350;6.576;2023-02-28T17:20:40;5.85;;;3.13;;
23228;SDS011;11783;50.350;6.576;2023-02-28T17:23:07;9.20;;;3.75;;
23228;SDS011;11783;50.350;6.576;2023-02-28T17:25:32;5.97;;;3.75;;
23228;SDS011;11783;50.350;6.576;2023-02-28T17:27:58;5.78;;;3.22;;
23228;SDS011;11783;50.350;6.576;2023-02-28T17:30:25;4.70;;;2.92;;
23228;SDS011;11783;50.350;6.576;2023-02-28T17:32:55;5.20;;;3.17;;
23228;SDS011;11783;50.350;6.576;2023-02-28T17:35:21;6.40;;;3.45;;